sensor_id;sensor_type;location;lat;lon;timestamp;P1;durP1;ratioP1;P2;durP2;ratioP2
38567;SDS011;24338;48.280;10.970;2022-10-18T00:00:17;7.88;;;5.72;;
38567;SDS011;24338;48.280;10.970;2022-10-18T00:02:43;8.43;;;4.78;;
38567;SDS011;24338;48.280;10.970;2022-10-18T00:05:10;9.95;;;5.55;;
38567;SDS011;24338;48.280;10.970;2022-10-18T00:07:37;8.90;;;4.95;;
38567;SDS011;24338;48.280;10.970;2022-10-18T00:10:04;9.68;;;5.18;;
38567;SDS011;24338;48.280;10.970;2022-10-18T00:12:32;7.72;;;5.47;;
38567;SDS011;24338;48.280;10.970;2022-10-18T00:15:00;8.77;;;5.63;;
38567;SDS011;24338;48.280;10.970;2022-10-18T00:17:28;7.35;;;4.65;;
38567;SDS011;24338;48.280;10.970;2022-10-18T00:19:55;10.48;;;4.97;;
38567;SDS011;24338;48.280;10.970;2022-10-18T00:22:22;9.73;;;5.57;;
38567;SDS011;24338;48.280;10.970;2022-10-18T00:24:50;9.10;;;4.40;;
38567;SDS011;24338;48.280;10.970;2022-10-18T00:27:17;7.30;;;4.75;;
38567;SDS011;24338;48.280;10.970;2022-10-18T00:29:44;12.55;;;5.30;;
38567;SDS011;24338;48.280;10.970;2022-10-18T00:32:11;8.68;;;5.63;;
38567;SDS011;24338;48.280;10.970;2022-10-18T00:34:38;5.95;;;4.60;;
38567;SDS011;24338;48.280;10.970;2022-10-18T00:37:05;6.35;;;4.05;;
38567;SDS011;24338;48.280;10.970;2022-10-18T00:39:32;9.05;;;4.18;;
38567;SDS011;24338;48.280;10.970;2022-10-18T00:41:59;7.82;;;4.47;;
38567;SDS011;24338;48.280;10.970;2022-10-18T00:46:54;8.38;;;4.47;;
38567;SDS011;24338;48.280;10.970;2022-10-18T00:52:23;9.40;;;4.55;;
38567;SDS011;24338;48.280;10.970;2022-10-18T00:54:54;15.73;;;5.13;;
38567;SDS011;24338;48.280;10.970;2022-10-18T00:57:22;8.27;;;5.20;;
38567;SDS011;24338;48.280;10.970;2022-10-18T00:59:50;6.47;;;4.40;;
38567;SDS011;24338;48.280;10.970;2022-10-18T01:02:18;6.60;;;4.68;;
38567;SDS011;24338;48.280;10.970;2022-10-18T01:04:45;7.72;;;4.75;;
38567;SDS011;24338;48.280;10.970;2022-10-18T01:07:24;10.20;;;5.07;;
38567;SDS011;24338;48.280;10.970;2022-10-18T01:10:29;7.65;;;4.78;;
38567;SDS011;24338;48.280;10.970;2022-10-18T01:13:12;12.73;;;5.22;;
38567;SDS011;24338;48.280;10.970;2022-10-18T01:16:17;9.77;;;4.95;;
38567;SDS011;24338;48.280;10.970;2022-10-18T01:21:54;7.90;;;4.25;;
38567;SDS011;24338;48.280;10.970;2022-10-18T01:27:38;7.35;;;4.85;;
38567;SDS011;24338;48.280;10.970;2022-10-18T01:33:23;8.60;;;6.38;;
38567;SDS011;24338;48.280;10.970;2022-10-18T01:38:46;7.85;;;4.80;;
38567;SDS011;24338;48.280;10.970;2022-10-18T01:41:16;10.45;;;5.55;;
38567;SDS011;24338;48.280;10.970;2022-10-18T01:43:45;15.80;;;5.65;;
38567;SDS011;24338;48.280;10.970;2022-10-18T01:46:16;12.10;;;5.38;;
38567;SDS011;24338;48.280;10.970;2022-10-18T01:48:46;7.13;;;4.82;;
38567;SDS011;24338;48.280;10.970;2022-10-18T01:51:14;8.35;;;5.43;;
38567;SDS011;24338;48.280;10.970;2022-10-18T01:53:45;10.65;;;6.03;;
38567;SDS011;24338;48.280;10.970;2022-10-18T01:56:19;10.98;;;5.38;;
38567;SDS011;24338;48.280;10.970;2022-10-18T02:02:08;6.65;;;4.55;;
38567;SDS011;24338;48.280;10.970;2022-10-18T02:10:44;8.02;;;4.95;;
38567;SDS011;24338;48.280;10.970;2022-10-18T02:13:14;8.05;;;5.10;;
38567;SDS011;24338;48.280;10.970;2022-10-18T02:15:45;8.05;;;4.60;;
38567;SDS011;24338;48.280;10.970;2022-10-18T02:18:15;8.52;;;5.43;;
38567;SDS011;24338;48.280;10.970;2022-10-18T02:20:49;9.00;;;5.05;;
38567;SDS011;24338;48.280;10.970;2022-10-18T02:23:19;10.45;;;5.07;;
38567;SDS011;24338;48.280;10.970;2022-10-18T02:25:48;9.85;;;5.28;;
38567;SDS011;24338;48.280;10.970;2022-10-18T02:28:16;7.50;;;4.90;;
38567;SDS011;24338;48.280;10.970;2022-10-18T02:30:44;7.80;;;4.60;;
38567;SDS011;24338;48.280;10.970;2022-10-18T02:36:26;9.20;;;5.07;;
38567;SDS011;24338;48.280;10.970;2022-10-18T02:39:01;11.35;;;4.70;;
38567;SDS011;24338;48.280;10.970;2022-10-18T02:41:32;10.00;;;5.03;;
38567;SDS011;24338;48.280;10.970;2022-10-18T02:43:59;10.23;;;5.05;;
38567;SDS011;24338;48.280;10.970;2022-10-18T02:46:26;10.75;;;4.72;;
38567;SDS011;24338;48.280;10.970;2022-10-18T02:48:53;8.18;;;5.28;;
38567;SDS011;24338;48.280;10.970;2022-10-18T02:51:20;6.93;;;4.80;;
38567;SDS011;24338;48.280;10.970;2022-10-18T02:53:46;12.88;;;5.13;;
38567;SDS011;24338;48.280;10.970;2022-10-18T02:56:13;7.38;;;4.68;;
38567;SDS011;24338;48.280;10.970;2022-10-18T02:58:40;7.18;;;5.05;;
38567;SDS011;24338;48.280;10.970;2022-10-18T03:01:07;9.93;;;5.80;;
38567;SDS011;24338;48.280;10.970;2022-10-18T03:03:34;12.73;;;5.15;;
38567;SDS011;24338;48.280;10.970;2022-10-18T03:06:00;8.82;;;5.85;;
38567;SDS011;24338;48.280;10.970;2022-10-18T03:08:27;9.13;;;5.38;;
38567;SDS011;24338;48.280;10.970;2022-10-18T03:10:54;10.18;;;5.50;;
38567;SDS011;24338;48.280;10.970;2022-10-18T03:13:21;10.02;;;4.90;;
38567;SDS011;24338;48.280;10.970;2022-10-18T03:15:48;9.73;;;5.57;;
38567;SDS011;24338;48.280;10.970;2022-10-18T03:18:14;9.70;;;5.45;;
38567;SDS011;24338;48.280;10.970;2022-10-18T03:20:41;9.43;;;5.15;;
38567;SDS011;24338;48.280;10.970;2022-10-18T03:23:08;8.32;;;5.20;;
38567;SDS011;24338;48.280;10.970;2022-10-18T03:25:35;11.98;;;5.32;;
38567;SDS011;24338;48.280;10.970;2022-10-18T03:28:02;11.48;;;5.50;;
38567;SDS011;24338;48.280;10.970;2022-10-18T03:30:28;9.73;;;5.53;;
38567;SDS011;24338;48.280;10.970;2022-10-18T03:32:55;6.40;;;4.45;;
38567;SDS011;24338;48.280;10.970;2022-10-18T03:35:22;11.25;;;5.72;;
38567;SDS011;24338;48.280;10.970;2022-10-18T03:37:49;7.63;;;5.07;;
38567;SDS011;24338;48.280;10.970;2022-10-18T03:40:16;8.70;;;5.15;;
38567;SDS011;24338;48.280;10.970;2022-10-18T03:42:42;6.90;;;4.78;;
38567;SDS011;24338;48.280;10.970;2022-10-18T03:45:09;9.48;;;4.70;;
38567;SDS011;24338;48.280;10.970;2022-10-18T03:47:36;10.15;;;5.25;;
38567;SDS011;24338;48.280;10.970;2022-10-18T03:50:03;8.18;;;4.88;;
38567;SDS011;24338;48.280;10.970;2022-10-18T03:52:30;7.78;;;4.80;;
38567;SDS011;24338;48.280;10.970;2022-10-18T03:54:57;10.10;;;5.45;;
38567;SDS011;24338;48.280;10.970;2022-10-18T03:57:24;8.23;;;5.10;;
38567;SDS011;24338;48.280;10.970;2022-10-18T03:59:51;7.72;;;4.45;;
38567;SDS011;24338;48.280;10.970;2022-10-18T04:02:18;8.18;;;4.90;;
38567;SDS011;24338;48.280;10.970;2022-10-18T04:04:45;7.22;;;4.70;;
38567;SDS011;24338;48.280;10.970;2022-10-18T04:07:11;7.35;;;4.72;;
38567;SDS011;24338;48.280;10.970;2022-10-18T04:09:38;11.27;;;5.07;;
38567;SDS011;24338;48.280;10.970;2022-10-18T04:12:05;11.55;;;5.32;;
38567;SDS011;24338;48.280;10.970;2022-10-18T04:14:32;9.05;;;4.85;;
38567;SDS011;24338;48.280;10.970;2022-10-18T04:16:58;13.35;;;5.28;;
38567;SDS011;24338;48.280;10.970;2022-10-18T04:19:25;9.00;;;5.78;;
38567;SDS011;24338;48.280;10.970;2022-10-18T04:21:52;9.65;;;4.97;;
38567;SDS011;24338;48.280;10.970;2022-10-18T04:24:19;6.30;;;4.68;;
38567;SDS011;24338;48.280;10.970;2022-10-18T04:26:46;10.07;;;5.38;;
38567;SDS011;24338;48.280;10.970;2022-10-18T04:29:13;10.57;;;4.63;;
38567;SDS011;24338;48.280;10.970;2022-10-18T04:31:40;10.07;;;4.97;;
38567;SDS011;24338;48.280;10.970;2022-10-18T04:34:06;7.10;;;4.45;;
38567;SDS011;24338;48.280;10.970;2022-10-18T04:36:34;11.07;;;5.40;;
38567;SDS011;24338;48.280;10.970;2022-10-18T04:39:01;10.88;;;5.10;;
38567;SDS011;24338;48.280;10.970;2022-10-18T04:41:28;7.88;;;5.22;;
38567;SDS011;24338;48.280;10.970;2022-10-18T04:43:54;6.95;;;4.70;;
38567;SDS011;24338;48.280;10.970;2022-10-18T04:46:21;8.27;;;5.00;;
38567;SDS011;24338;48.280;10.970;2022-10-18T04:48:48;8.15;;;4.75;;
38567;SDS011;24338;48.280;10.970;2022-10-18T04:51:15;6.93;;;4.43;;
38567;SDS011;24338;48.280;10.970;2022-10-18T06:10:39;7.15;;;5.15;;
38567;SDS011;24338;48.280;10.970;2022-10-18T06:17:39;7.40;;;5.00;;
38567;SDS011;24338;48.280;10.970;2022-10-18T06:21:38;8.00;;;4.72;;
38567;SDS011;24338;48.280;10.970;2022-10-18T06:25:17;8.90;;;4.35;;
38567;SDS011;24338;48.280;10.970;2022-10-18T06:29:07;7.55;;;4.15;;
38567;SDS011;24338;48.280;10.970;2022-10-18T06:33:05;7.70;;;4.80;;
38567;SDS011;24338;48.280;10.970;2022-10-18T06:40:15;8.20;;;4.80;;
38567;SDS011;24338;48.280;10.970;2022-10-18T06:47:56;5.75;;;3.95;;
38567;SDS011;24338;48.280;10.970;2022-10-18T06:51:55;6.30;;;3.90;;
38567;SDS011;24338;48.280;10.970;2022-10-18T06:55:22;8.57;;;4.68;;
38567;SDS011;24338;48.280;10.970;2022-10-18T07:02:14;6.40;;;3.55;;
38567;SDS011;24338;48.280;10.970;2022-10-18T07:13:32;5.65;;;3.40;;
38567;SDS011;24338;48.280;10.970;2022-10-18T07:21:09;6.72;;;3.55;;
38567;SDS011;24338;48.280;10.970;2022-10-18T07:24:37;8.25;;;3.42;;
38567;SDS011;24338;48.280;10.970;2022-10-18T07:28:49;5.80;;;3.05;;
38567;SDS011;24338;48.280;10.970;2022-10-18T07:32:02;5.50;;;2.88;;
38567;SDS011;24338;48.280;10.970;2022-10-18T07:38:37;8.32;;;3.47;;
38567;SDS011;24338;48.280;10.970;2022-10-18T07:42:07;5.43;;;3.05;;
38567;SDS011;24338;48.280;10.970;2022-10-18T07:49:51;6.53;;;2.95;;
38567;SDS011;24338;48.280;10.970;2022-10-18T07:54:03;8.60;;;3.65;;
38567;SDS011;24338;48.280;10.970;2022-10-18T07:57:59;5.05;;;3.08;;
38567;SDS011;24338;48.280;10.970;2022-10-18T08:02:01;6.40;;;3.42;;
38567;SDS011;24338;48.280;10.970;2022-10-18T08:06:04;6.05;;;3.05;;
38567;SDS011;24338;48.280;10.970;2022-10-18T08:10:08;7.18;;;3.17;;
38567;SDS011;24338;48.280;10.970;2022-10-18T08:18:13;4.82;;;3.28;;
38567;SDS011;24338;48.280;10.970;2022-10-18T08:21:52;5.57;;;3.38;;
38567;SDS011;24338;48.280;10.970;2022-10-18T08:25:21;9.13;;;4.15;;
38567;SDS011;24338;48.280;10.970;2022-10-18T08:28:51;6.60;;;3.42;;
38567;SDS011;24338;48.280;10.970;2022-10-18T08:32:25;9.15;;;4.40;;
38567;SDS011;24338;48.280;10.970;2022-10-18T08:35:58;6.90;;;3.83;;
38567;SDS011;24338;48.280;10.970;2022-10-18T08:39:27;6.07;;;3.92;;
38567;SDS011;24338;48.280;10.970;2022-10-18T08:46:44;6.20;;;3.75;;
38567;SDS011;24338;48.280;10.970;2022-10-18T08:50:26;7.57;;;4.63;;
38567;SDS011;24338;48.280;10.970;2022-10-18T08:53:58;7.82;;;3.30;;
38567;SDS011;24338;48.280;10.970;2022-10-18T09:23:27;8.13;;;3.30;;
38567;SDS011;24338;48.280;10.970;2022-10-18T09:34:24;7.53;;;3.53;;
38567;SDS011;24338;48.280;10.970;2022-10-18T09:37:01;9.05;;;2.60;;
38567;SDS011;24338;48.280;10.970;2022-10-18T09:39:29;5.90;;;2.75;;
38567;SDS011;24338;48.280;10.970;2022-10-18T09:56:24;6.20;;;2.45;;
38567;SDS011;24338;48.280;10.970;2022-10-18T09:58:55;6.00;;;3.15;;
38567;SDS011;24338;48.280;10.970;2022-10-18T10:01:26;7.28;;;2.67;;
38567;SDS011;24338;48.280;10.970;2022-10-18T10:03:55;8.57;;;3.25;;
38567;SDS011;24338;48.280;10.970;2022-10-18T10:18:19;9.57;;;2.72;;
38567;SDS011;24338;48.280;10.970;2022-10-18T10:20:49;4.63;;;2.22;;
38567;SDS011;24338;48.280;10.970;2022-10-18T10:25:52;6.03;;;2.58;;
38567;SDS011;24338;48.280;10.970;2022-10-18T10:28:22;4.03;;;2.35;;
38567;SDS011;24338;48.280;10.970;2022-10-18T10:33:46;5.65;;;2.47;;
38567;SDS011;24338;48.280;10.970;2022-10-18T10:36:17;8.88;;;2.58;;
38567;SDS011;24338;48.280;10.970;2022-10-18T10:39:01;4.03;;;2.33;;
38567;SDS011;24338;48.280;10.970;2022-10-18T10:41:28;6.38;;;2.33;;
38567;SDS011;24338;48.280;10.970;2022-10-18T10:44:00;4.80;;;1.88;;
38567;SDS011;24338;48.280;10.970;2022-10-18T10:46:32;4.32;;;1.92;;
38567;SDS011;24338;48.280;10.970;2022-10-18T10:49:00;9.77;;;2.35;;
38567;SDS011;24338;48.280;10.970;2022-10-18T10:51:56;5.22;;;2.10;;
38567;SDS011;24338;48.280;10.970;2022-10-18T10:54:42;4.57;;;2.30;;
38567;SDS011;24338;48.280;10.970;2022-10-18T10:57:26;5.53;;;2.13;;
38567;SDS011;24338;48.280;10.970;2022-10-18T10:59:55;5.72;;;2.08;;
38567;SDS011;24338;48.280;10.970;2022-10-18T11:02:25;5.22;;;2.15;;
38567;SDS011;24338;48.280;10.970;2022-10-18T11:05:22;6.82;;;2.30;;
38567;SDS011;24338;48.280;10.970;2022-10-18T11:07:53;3.88;;;1.95;;
38567;SDS011;24338;48.280;10.970;2022-10-18T11:13:16;6.28;;;2.05;;
38567;SDS011;24338;48.280;10.970;2022-10-18T11:15:53;4.40;;;2.10;;
38567;SDS011;24338;48.280;10.970;2022-10-18T11:18:31;6.13;;;2.05;;
38567;SDS011;24338;48.280;10.970;2022-10-18T11:21:02;6.25;;;1.65;;
38567;SDS011;24338;48.280;10.970;2022-10-18T11:23:34;3.92;;;1.77;;
38567;SDS011;24338;48.280;10.970;2022-10-18T11:28:43;9.40;;;1.95;;
38567;SDS011;24338;48.280;10.970;2022-10-18T11:53:43;5.82;;;1.63;;
38567;SDS011;24338;48.280;10.970;2022-10-18T11:56:47;4.57;;;2.83;;
38567;SDS011;24338;48.280;10.970;2022-10-18T11:59:23;4.43;;;1.92;;
38567;SDS011;24338;48.280;10.970;2022-10-18T12:02:18;3.60;;;1.52;;
38567;SDS011;24338;48.280;10.970;2022-10-18T12:05:04;8.35;;;2.58;;
38567;SDS011;24338;48.280;10.970;2022-10-18T12:08:01;4.40;;;1.77;;
38567;SDS011;24338;48.280;10.970;2022-10-18T12:10:39;5.55;;;2.22;;
38567;SDS011;24338;48.280;10.970;2022-10-18T12:13:31;7.32;;;2.55;;
38567;SDS011;24338;48.280;10.970;2022-10-18T12:16:22;6.45;;;2.30;;
38567;SDS011;24338;48.280;10.970;2022-10-18T12:19:19;3.40;;;1.40;;
38567;SDS011;24338;48.280;10.970;2022-10-18T12:21:53;5.03;;;2.00;;
38567;SDS011;24338;48.280;10.970;2022-10-18T12:24:24;8.38;;;2.20;;
38567;SDS011;24338;48.280;10.970;2022-10-18T12:26:59;5.40;;;1.60;;
38567;SDS011;24338;48.280;10.970;2022-10-18T12:29:28;3.85;;;1.50;;
38567;SDS011;24338;48.280;10.970;2022-10-18T12:32:17;5.47;;;1.42;;
38567;SDS011;24338;48.280;10.970;2022-10-18T12:35:03;6.07;;;1.48;;
38567;SDS011;24338;48.280;10.970;2022-10-18T12:43:06;3.33;;;1.50;;
38567;SDS011;24338;48.280;10.970;2022-10-18T12:48:27;3.28;;;1.50;;
38567;SDS011;24338;48.280;10.970;2022-10-18T12:50:59;5.82;;;1.30;;
38567;SDS011;24338;48.280;10.970;2022-10-18T12:53:31;5.75;;;2.05;;
38567;SDS011;24338;48.280;10.970;2022-10-18T12:56:31;7.25;;;1.90;;
38567;SDS011;24338;48.280;10.970;2022-10-18T13:04:50;6.97;;;1.45;;
38567;SDS011;24338;48.280;10.970;2022-10-18T13:07:15;4.90;;;1.92;;
38567;SDS011;24338;48.280;10.970;2022-10-18T13:12:48;4.60;;;1.75;;
38567;SDS011;24338;48.280;10.970;2022-10-18T13:15:52;3.85;;;1.33;;
38567;SDS011;24338;48.280;10.970;2022-10-18T13:18:46;5.00;;;1.75;;
38567;SDS011;24338;48.280;10.970;2022-10-18T13:21:22;5.75;;;2.25;;
38567;SDS011;24338;48.280;10.970;2022-10-18T13:38:03;8.02;;;2.10;;
38567;SDS011;24338;48.280;10.970;2022-10-18T13:40:58;6.03;;;2.10;;
38567;SDS011;24338;48.280;10.970;2022-10-18T13:46:18;5.35;;;2.22;;
38567;SDS011;24338;48.280;10.970;2022-10-18T13:53:51;5.97;;;1.80;;
38567;SDS011;24338;48.280;10.970;2022-10-18T13:59:07;6.60;;;2.30;;
38567;SDS011;24338;48.280;10.970;2022-10-18T14:08:11;10.27;;;2.35;;
38567;SDS011;24338;48.280;10.970;2022-10-18T14:11:10;8.07;;;2.78;;
38567;SDS011;24338;48.280;10.970;2022-10-18T14:14:03;3.97;;;1.70;;
38567;SDS011;24338;48.280;10.970;2022-10-18T14:16:41;6.22;;;2.13;;
38567;SDS011;24338;48.280;10.970;2022-10-18T14:24:50;4.82;;;1.83;;
38567;SDS011;24338;48.280;10.970;2022-10-18T14:27:20;4.93;;;2.10;;
38567;SDS011;24338;48.280;10.970;2022-10-18T14:29:49;7.28;;;1.90;;
38567;SDS011;24338;48.280;10.970;2022-10-18T14:32:32;7.72;;;1.52;;
38567;SDS011;24338;48.280;10.970;2022-10-18T14:35:00;4.97;;;2.33;;
38567;SDS011;24338;48.280;10.970;2022-10-18T14:37:48;4.28;;;1.85;;
38567;SDS011;24338;48.280;10.970;2022-10-18T14:45:39;8.50;;;2.28;;
38567;SDS011;24338;48.280;10.970;2022-10-18T14:48:12;7.45;;;2.35;;
38567;SDS011;24338;48.280;10.970;2022-10-18T14:50:54;5.15;;;2.45;;
38567;SDS011;24338;48.280;10.970;2022-10-18T14:53:26;11.70;;;3.10;;
38567;SDS011;24338;48.280;10.970;2022-10-18T14:55:58;6.43;;;2.63;;
38567;SDS011;24338;48.280;10.970;2022-10-18T14:58:26;6.88;;;2.85;;
38567;SDS011;24338;48.280;10.970;2022-10-18T15:00:53;6.25;;;2.97;;
38567;SDS011;24338;48.280;10.970;2022-10-18T15:09:22;7.88;;;3.60;;
38567;SDS011;24338;48.280;10.970;2022-10-18T15:11:50;6.72;;;4.07;;
38567;SDS011;24338;48.280;10.970;2022-10-18T15:14:20;7.00;;;4.10;;
38567;SDS011;24338;48.280;10.970;2022-10-18T15:16:47;6.97;;;3.75;;
38567;SDS011;24338;48.280;10.970;2022-10-18T15:21:57;10.10;;;4.82;;
38567;SDS011;24338;48.280;10.970;2022-10-18T15:25:02;11.50;;;5.32;;
38567;SDS011;24338;48.280;10.970;2022-10-18T15:27:57;7.00;;;3.33;;
38567;SDS011;24338;48.280;10.970;2022-10-18T15:30:26;12.38;;;6.88;;
38567;SDS011;24338;48.280;10.970;2022-10-18T15:33:02;11.43;;;5.95;;
38567;SDS011;24338;48.280;10.970;2022-10-18T15:35:35;10.32;;;5.95;;
38567;SDS011;24338;48.280;10.970;2022-10-18T15:38:24;9.30;;;5.28;;
38567;SDS011;24338;48.280;10.970;2022-10-18T15:40:53;15.77;;;7.00;;
38567;SDS011;24338;48.280;10.970;2022-10-18T15:46:02;14.90;;;8.27;;
38567;SDS011;24338;48.280;10.970;2022-10-18T15:51:04;18.67;;;8.00;;
38567;SDS011;24338;48.280;10.970;2022-10-18T15:53:51;14.00;;;8.10;;
38567;SDS011;24338;48.280;10.970;2022-10-18T15:59:03;9.00;;;5.63;;
38567;SDS011;24338;48.280;10.970;2022-10-18T16:01:33;13.55;;;5.70;;
38567;SDS011;24338;48.280;10.970;2022-10-18T16:04:06;11.88;;;5.60;;
38567;SDS011;24338;48.280;10.970;2022-10-18T16:06:38;9.02;;;4.68;;
38567;SDS011;24338;48.280;10.970;2022-10-18T16:09:05;9.07;;;4.72;;
38567;SDS011;24338;48.280;10.970;2022-10-18T16:11:38;6.90;;;3.72;;
38567;SDS011;24338;48.280;10.970;2022-10-18T16:14:05;9.70;;;4.43;;
38567;SDS011;24338;48.280;10.970;2022-10-18T16:16:31;11.68;;;4.40;;
38567;SDS011;24338;48.280;10.970;2022-10-18T16:18:58;11.55;;;6.13;;
38567;SDS011;24338;48.280;10.970;2022-10-18T16:21:27;7.47;;;4.30;;
38567;SDS011;24338;48.280;10.970;2022-10-18T16:23:56;10.05;;;4.47;;
38567;SDS011;24338;48.280;10.970;2022-10-18T16:26:23;9.05;;;4.47;;
38567;SDS011;24338;48.280;10.970;2022-10-18T16:28:52;9.93;;;4.53;;
38567;SDS011;24338;48.280;10.970;2022-10-18T16:31:27;10.77;;;4.97;;
38567;SDS011;24338;48.280;10.970;2022-10-18T16:33:56;7.88;;;5.28;;
38567;SDS011;24338;48.280;10.970;2022-10-18T16:36:25;12.15;;;5.70;;
38567;SDS011;24338;48.280;10.970;2022-10-18T16:38:54;8.02;;;5.10;;
38567;SDS011;24338;48.280;10.970;2022-10-18T16:41:22;8.80;;;6.18;;
38567;SDS011;24338;48.280;10.970;2022-10-18T16:43:49;10.93;;;8.32;;
38567;SDS011;24338;48.280;10.970;2022-10-18T16:46:21;13.15;;;9.07;;
38567;SDS011;24338;48.280;10.970;2022-10-18T16:48:53;11.65;;;7.35;;
38567;SDS011;24338;48.280;10.970;2022-10-18T16:51:20;8.73;;;4.95;;
38567;SDS011;24338;48.280;10.970;2022-10-18T16:56:31;9.15;;;4.07;;
38567;SDS011;24338;48.280;10.970;2022-10-18T16:58:59;10.00;;;4.18;;
38567;SDS011;24338;48.280;10.970;2022-10-18T17:01:26;12.05;;;5.10;;
38567;SDS011;24338;48.280;10.970;2022-10-18T17:03:53;9.55;;;5.22;;
38567;SDS011;24338;48.280;10.970;2022-10-18T17:06:30;7.97;;;5.22;;
38567;SDS011;24338;48.280;10.970;2022-10-18T17:08:58;7.63;;;4.38;;
38567;SDS011;24338;48.280;10.970;2022-10-18T17:11:25;7.10;;;5.03;;
38567;SDS011;24338;48.280;10.970;2022-10-18T17:13:53;9.48;;;5.75;;
38567;SDS011;24338;48.280;10.970;2022-10-18T17:16:30;11.13;;;5.45;;
38567;SDS011;24338;48.280;10.970;2022-10-18T17:19:00;6.40;;;4.53;;
38567;SDS011;24338;48.280;10.970;2022-10-18T17:21:29;9.63;;;4.55;;
38567;SDS011;24338;48.280;10.970;2022-10-18T17:23:56;9.13;;;5.25;;
38567;SDS011;24338;48.280;10.970;2022-10-18T17:26:31;6.80;;;4.72;;
38567;SDS011;24338;48.280;10.970;2022-10-18T17:29:01;7.78;;;4.55;;
38567;SDS011;24338;48.280;10.970;2022-10-18T17:31:30;10.02;;;4.57;;
38567;SDS011;24338;48.280;10.970;2022-10-18T17:33:58;9.05;;;4.68;;
38567;SDS011;24338;48.280;10.970;2022-10-18T17:36:27;7.22;;;4.47;;
38567;SDS011;24338;48.280;10.970;2022-10-18T17:38:58;6.67;;;4.50;;
38567;SDS011;24338;48.280;10.970;2022-10-18T17:41:25;10.50;;;4.75;;
38567;SDS011;24338;48.280;10.970;2022-10-18T17:43:52;7.70;;;4.50;;
38567;SDS011;24338;48.280;10.970;2022-10-18T17:46:19;9.88;;;5.00;;
38567;SDS011;24338;48.280;10.970;2022-10-18T17:48:46;8.02;;;4.63;;
38567;SDS011;24338;48.280;10.970;2022-10-18T17:51:13;9.80;;;5.32;;
38567;SDS011;24338;48.280;10.970;2022-10-18T17:53:41;6.93;;;5.25;;
38567;SDS011;24338;48.280;10.970;2022-10-18T17:56:09;7.75;;;4.95;;
38567;SDS011;24338;48.280;10.970;2022-10-18T17:58:39;8.57;;;5.57;;
38567;SDS011;24338;48.280;10.970;2022-10-18T18:03:46;8.73;;;6.13;;
38567;SDS011;24338;48.280;10.970;2022-10-18T18:06:14;9.55;;;5.80;;
38567;SDS011;24338;48.280;10.970;2022-10-18T18:08:49;6.97;;;5.28;;
38567;SDS011;24338;48.280;10.970;2022-10-18T18:11:16;9.57;;;5.93;;
38567;SDS011;24338;48.280;10.970;2022-10-18T18:13:43;7.03;;;4.72;;
38567;SDS011;24338;48.280;10.970;2022-10-18T18:18:38;7.68;;;5.30;;
38567;SDS011;24338;48.280;10.970;2022-10-18T18:21:05;10.02;;;5.60;;
38567;SDS011;24338;48.280;10.970;2022-10-18T18:23:31;7.85;;;5.53;;
38567;SDS011;24338;48.280;10.970;2022-10-18T18:25:58;7.38;;;4.95;;
38567;SDS011;24338;48.280;10.970;2022-10-18T18:28:25;8.10;;;4.55;;
38567;SDS011;24338;48.280;10.970;2022-10-18T18:30:52;5.97;;;4.32;;
38567;SDS011;24338;48.280;10.970;2022-10-18T18:33:19;8.27;;;5.30;;
38567;SDS011;24338;48.280;10.970;2022-10-18T18:35:55;6.45;;;4.90;;
38567;SDS011;24338;48.280;10.970;2022-10-18T18:38:23;8.55;;;6.07;;
38567;SDS011;24338;48.280;10.970;2022-10-18T18:41:07;13.30;;;9.30;;
38567;SDS011;24338;48.280;10.970;2022-10-18T18:43:39;16.33;;;10.50;;
38567;SDS011;24338;48.280;10.970;2022-10-18T18:46:08;13.18;;;8.82;;
38567;SDS011;24338;48.280;10.970;2022-10-18T18:48:36;17.05;;;10.25;;
38567;SDS011;24338;48.280;10.970;2022-10-18T18:51:03;15.52;;;10.43;;
38567;SDS011;24338;48.280;10.970;2022-10-18T18:53:38;14.18;;;9.68;;
38567;SDS011;24338;48.280;10.970;2022-10-18T18:56:09;12.50;;;9.02;;
38567;SDS011;24338;48.280;10.970;2022-10-18T18:58:40;11.88;;;8.85;;
38567;SDS011;24338;48.280;10.970;2022-10-18T19:01:10;16.63;;;9.52;;
38567;SDS011;24338;48.280;10.970;2022-10-18T19:03:45;13.30;;;9.82;;
38567;SDS011;24338;48.280;10.970;2022-10-18T19:06:15;15.18;;;9.48;;
38567;SDS011;24338;48.280;10.970;2022-10-18T19:08:52;13.65;;;9.88;;
38567;SDS011;24338;48.280;10.970;2022-10-18T19:11:27;13.98;;;9.18;;
38567;SDS011;24338;48.280;10.970;2022-10-18T19:14:01;14.93;;;9.63;;
38567;SDS011;24338;48.280;10.970;2022-10-18T19:16:38;15.77;;;11.20;;
38567;SDS011;24338;48.280;10.970;2022-10-18T19:19:16;16.75;;;10.85;;
38567;SDS011;24338;48.280;10.970;2022-10-18T19:21:46;13.30;;;10.23;;
38567;SDS011;24338;48.280;10.970;2022-10-18T19:24:20;15.95;;;9.38;;
38567;SDS011;24338;48.280;10.970;2022-10-18T19:27:05;11.63;;;8.43;;
38567;SDS011;24338;48.280;10.970;2022-10-18T19:29:38;11.15;;;8.70;;
38567;SDS011;24338;48.280;10.970;2022-10-18T19:32:06;13.40;;;9.80;;
38567;SDS011;24338;48.280;10.970;2022-10-18T19:34:37;14.45;;;10.50;;
38567;SDS011;24338;48.280;10.970;2022-10-18T19:37:04;15.10;;;9.48;;
38567;SDS011;24338;48.280;10.970;2022-10-18T19:39:32;14.18;;;9.82;;
38567;SDS011;24338;48.280;10.970;2022-10-18T19:42:00;15.18;;;9.63;;
38567;SDS011;24338;48.280;10.970;2022-10-18T19:44:30;10.40;;;8.35;;
38567;SDS011;24338;48.280;10.970;2022-10-18T19:46:58;13.20;;;9.07;;
38567;SDS011;24338;48.280;10.970;2022-10-18T19:49:25;12.13;;;8.73;;
38567;SDS011;24338;48.280;10.970;2022-10-18T19:51:54;12.13;;;9.63;;
38567;SDS011;24338;48.280;10.970;2022-10-18T19:54:21;11.60;;;8.45;;
38567;SDS011;24338;48.280;10.970;2022-10-18T19:56:51;9.57;;;7.93;;
38567;SDS011;24338;48.280;10.970;2022-10-18T19:59:17;10.88;;;7.60;;
38567;SDS011;24338;48.280;10.970;2022-10-18T20:01:45;13.57;;;8.63;;
38567;SDS011;24338;48.280;10.970;2022-10-18T20:04:12;13.10;;;8.10;;
38567;SDS011;24338;48.280;10.970;2022-10-18T20:06:39;11.32;;;7.93;;
38567;SDS011;24338;48.280;10.970;2022-10-18T20:09:07;12.35;;;8.60;;
38567;SDS011;24338;48.280;10.970;2022-10-18T20:11:39;12.98;;;8.18;;
38567;SDS011;24338;48.280;10.970;2022-10-18T20:14:09;12.00;;;7.63;;
38567;SDS011;24338;48.280;10.970;2022-10-18T20:16:36;12.68;;;9.00;;
38567;SDS011;24338;48.280;10.970;2022-10-18T20:19:04;13.98;;;8.73;;
38567;SDS011;24338;48.280;10.970;2022-10-18T20:21:33;12.07;;;9.15;;
38567;SDS011;24338;48.280;10.970;2022-10-18T20:24:05;14.02;;;9.00;;
38567;SDS011;24338;48.280;10.970;2022-10-18T20:26:33;11.15;;;7.05;;
38567;SDS011;24338;48.280;10.970;2022-10-18T20:29:01;12.38;;;8.38;;
38567;SDS011;24338;48.280;10.970;2022-10-18T20:31:31;12.18;;;7.97;;
38567;SDS011;24338;48.280;10.970;2022-10-18T20:34:02;9.20;;;7.43;;
38567;SDS011;24338;48.280;10.970;2022-10-18T20:36:34;12.27;;;8.10;;
38567;SDS011;24338;48.280;10.970;2022-10-18T20:39:02;9.95;;;7.70;;
38567;SDS011;24338;48.280;10.970;2022-10-18T20:41:33;13.13;;;7.90;;
38567;SDS011;24338;48.280;10.970;2022-10-18T20:44:06;13.98;;;7.53;;
38567;SDS011;24338;48.280;10.970;2022-10-18T20:46:36;12.48;;;7.60;;
38567;SDS011;24338;48.280;10.970;2022-10-18T20:49:04;11.45;;;7.50;;
38567;SDS011;24338;48.280;10.970;2022-10-18T20:51:32;13.90;;;7.13;;
38567;SDS011;24338;48.280;10.970;2022-10-18T20:54:00;9.90;;;6.75;;
38567;SDS011;24338;48.280;10.970;2022-10-18T20:56:30;12.70;;;7.75;;
38567;SDS011;24338;48.280;10.970;2022-10-18T20:58:59;11.98;;;7.88;;
38567;SDS011;24338;48.280;10.970;2022-10-18T21:01:29;10.82;;;7.53;;